Time;durP1;ratioP1;P1;durP2;ratioP2;P2;SDS_P1;SDS_P2;PMS_P1;PMS_P2;Temp;Humidity;BMP_temperature;BMP_pressure;BME280_temperature;BME280_humidity;BME280_pressure;Samples;Min_cycle;Max_cycle;Signal;HPM_P1;HPM_P2
2022/11/27 00:02:01;;;;;;;26.83;9.77;;;;;;;;;;5133826;27;20047;-71
2022/11/27 00:04:28;;;;;;;31.30;9.15;;;;;;;;;;5118005;27;20512;-71
2022/11/27 00:06:54;;;;;;;29.30;10.13;;;;;;;;;;5113333;28;20046;-71
2022/11/27 00:09:20;;;;;;;31.20;10.10;;;;;;;;;;5113454;28;20048;-71
2022/11/27 00:11:46;;;;;;;29.55;10.00;;;;;;;;;;5114748;28;20044;-71
2022/11/27 00:14:13;;;;;;;27.48;10.57;;;;;;;;;;5124551;28;20039;-72
2022/11/27 00:16:39;;;;;;;30.55;10.25;;;;;;;;;;5130561;28;20043;-71
2022/11/27 00:19:08;;;;;;;31.83;10.85;;;;;;;;;;5133163;28;20043;-71
2022/11/27 00:21:35;;;;;;;24.27;9.70;;;;;;;;;;5129883;28;20472;-72
2022/11/27 00:24:05;;;;;;;26.90;10.02;;;;;;;;;;5131143;28;20039;-71
2022/11/27 00:26:32;;;;;;;27.40;10.17;;;;;;;;;;5131704;28;20504;-71
2022/11/27 00:28:58;;;;;;;27.42;9.90;;;;;;;;;;5123383;28;20044;-71
2022/11/27 00:31:27;;;;;;;25.40;10.60;;;;;;;;;;5130827;28;20077;-71
2022/11/27 00:34:00;;;;;;;23.65;10.00;;;;;;;;;;5131520;28;20118;-71
2022/11/27 00:36:27;;;;;;;42.42;10.73;;;;;;;;;;5123321;28;20051;-71
2022/11/27 00:38:54;;;;;;;19.13;8.68;;;;;;;;;;5113768;28;20107;-71
2022/11/27 00:41:21;;;;;;;24.48;10.15;;;;;;;;;;5132029;28;20035;-71
2022/11/27 00:43:47;;;;;;;24.00;9.60;;;;;;;;;;5129382;28;20032;-71
2022/11/27 00:46:14;;;;;;;25.55;10.30;;;;;;;;;;5132002;28;20039;-71
2022/11/27 00:48:40;;;;;;;25.98;9.55;;;;;;;;;;5131962;28;20035;-71
2022/11/27 00:51:07;;;;;;;29.38;10.77;;;;;;;;;;5130974;28;20520;-71
2022/11/27 00:53:34;;;;;;;24.90;10.13;;;;;;;;;;5119619;28;20043;-71
2022/11/27 00:56:00;;;;;;;23.42;10.60;;;;;;;;;;5132941;28;20085;-71
2022/11/27 00:58:26;;;;;;;28.20;10.00;;;;;;;;;;5128289;28;20043;-71
2022/11/27 01:00:56;;;;;;;25.63;9.90;;;;;;;;;;5137248;27;20051;-71
2022/11/27 01:03:22;;;;;;;25.85;10.18;;;;;;;;;;5132650;27;20126;-71
2022/11/27 01:05:48;;;;;;;26.48;10.00;;;;;;;;;;5133081;27;20096;-71
2022/11/27 01:08:14;;;;;;;28.95;10.38;;;;;;;;;;5136183;27;20405;-71
2022/11/27 01:10:47;;;;;;;33.17;10.25;;;;;;;;;;5134128;27;20039;-71
2022/11/27 01:13:13;;;;;;;30.13;10.23;;;;;;;;;;5130546;27;20127;-71
2022/11/27 01:15:39;;;;;;;26.77;10.52;;;;;;;;;;5133830;27;20046;-71
2022/11/27 01:18:05;;;;;;;23.80;9.48;;;;;;;;;;5135328;27;20481;-71
2022/11/27 01:20:31;;;;;;;28.70;10.55;;;;;;;;;;5133652;27;20039;-71
2022/11/27 01:22:57;;;;;;;23.92;10.10;;;;;;;;;;5135650;27;20066;-71
2022/11/27 01:25:23;;;;;;;27.67;10.13;;;;;;;;;;5135213;27;20047;-71
2022/11/27 01:27:49;;;;;;;25.25;9.98;;;;;;;;;;5128535;27;20439;-71
2022/11/27 01:30:15;;;;;;;27.02;9.70;;;;;;;;;;5126538;27;20035;-71
2022/11/27 01:32:41;;;;;;;29.13;9.45;;;;;;;;;;5120639;27;20112;-71
2022/11/27 01:35:08;;;;;;;23.52;9.45;;;;;;;;;;5120737;27;20040;-71
2022/11/27 01:37:34;;;;;;;23.70;9.50;;;;;;;;;;5133207;27;20031;-71
2022/11/27 01:40:00;;;;;;;29.48;10.25;;;;;;;;;;5135218;27;20039;-71
2022/11/27 01:42:26;;;;;;;23.55;10.70;;;;;;;;;;5120857;27;20130;-71
2022/11/27 01:44:53;;;;;;;26.23;9.98;;;;;;;;;;5134664;27;20151;-71
2022/11/27 01:47:34;;;;;;;24.52;10.23;;;;;;;;;;5134256;27;20054;-71
2022/11/27 01:50:11;;;;;;;31.40;10.13;;;;;;;;;;5129109;27;20056;-71
2022/11/27 01:52:40;;;;;;;22.70;9.23;;;;;;;;;;5128542;27;20519;-71
2022/11/27 01:55:12;;;;;;;24.80;10.30;;;;;;;;;;5122985;27;20516;-71
2022/11/27 01:57:43;;;;;;;25.90;10.35;;;;;;;;;;5136465;27;20043;-71
2022/11/27 02:00:11;;;;;;;27.30;9.73;;;;;;;;;;5132957;27;20059;-71
2022/11/27 02:02:37;;;;;;;28.23;10.02;;;;;;;;;;5136220;27;20409;-71
2022/11/27 02:05:04;;;;;;;26.67;10.10;;;;;;;;;;5136221;27;20047;-70
2022/11/27 02:07:30;;;;;;;25.60;10.25;;;;;;;;;;5134641;27;20042;-71
2022/11/27 02:09:56;;;;;;;23.00;9.68;;;;;;;;;;5136003;27;20520;-70
2022/11/27 02:12:33;;;;;;;32.85;10.60;;;;;;;;;;5125795;27;20092;-71
2022/11/27 02:15:05;;;;;;;30.58;9.75;;;;;;;;;;5131930;27;20039;-71
2022/11/27 02:17:40;;;;;;;23.42;10.00;;;;;;;;;;5115564;27;20170;-71
2022/11/27 02:20:18;;;;;;;23.20;9.90;;;;;;;;;;5114967;27;20054;-71
2022/11/27 02:22:50;;;;;;;22.27;10.07;;;;;;;;;;5133502;27;20046;-71
2022/11/27 02:25:26;;;;;;;18.38;8.65;;;;;;;;;;5134410;27;20566;-71
2022/11/27 02:27:54;;;;;;;21.10;9.38;;;;;;;;;;5132091;27;20062;-71
2022/11/27 02:30:20;;;;;;;21.90;9.25;;;;;;;;;;5131321;27;20051;-71
2022/11/27 02:32:50;;;;;;;25.17;9.98;;;;;;;;;;5133390;27;20051;-71
2022/11/27 02:35:22;;;;;;;25.83;9.73;;;;;;;;;;5125637;27;20040;-71
2022/11/27 02:37:50;;;;;;;23.52;8.75;;;;;;;;;;5132071;27;20050;-71
2022/11/27 02:40:22;;;;;;;21.85;9.32;;;;;;;;;;5132900;27;20039;-71
2022/11/27 02:43:21;;;;;;;27.00;8.70;;;;;;;;;;5132757;27;20130;-71
2022/11/27 02:45:49;;;;;;;21.85;8.77;;;;;;;;;;5087208;27;20103;-71
2022/11/27 02:48:16;;;;;;;27.92;8.48;;;;;;;;;;5110709;27;20035;-71
2022/11/27 02:50:43;;;;;;;22.08;8.45;;;;;;;;;;5129531;27;20043;-71
2022/11/27 02:53:18;;;;;;;19.95;8.45;;;;;;;;;;5120960;27;20040;-71
2022/11/27 02:55:45;;;;;;;23.08;8.57;;;;;;;;;;5109435;27;20080;-71
2022/11/27 02:58:16;;;;;;;23.42;8.65;;;;;;;;;;5122960;27;20047;-71
2022/11/27 03:00:43;;;;;;;23.40;8.40;;;;;;;;;;5128842;27;20092;-70
2022/11/27 03:03:10;;;;;;;21.65;8.63;;;;;;;;;;5132200;27;20129;-71
2022/11/27 03:05:39;;;;;;;23.95;9.13;;;;;;;;;;5128495;27;20421;-71
2022/11/27 03:08:13;;;;;;;26.00;8.80;;;;;;;;;;5133649;27;20042;-70
2022/11/27 03:10:49;;;;;;;22.20;8.25;;;;;;;;;;5131832;27;20039;-71
2022/11/27 03:13:15;;;;;;;19.17;8.32;;;;;;;;;;5132456;27;20042;-71
2022/11/27 03:15:47;;;;;;;19.90;8.30;;;;;;;;;;5115681;27;20046;-71
2022/11/27 03:18:21;;;;;;;24.02;8.32;;;;;;;;;;5121326;27;20093;-71
2022/11/27 03:20:49;;;;;;;21.73;7.97;;;;;;;;;;5129156;27;20067;-71
2022/11/27 03:23:15;;;;;;;23.77;8.25;;;;;;;;;;5124713;27;20043;-71
2022/11/27 03:25:41;;;;;;;18.95;7.25;;;;;;;;;;5133325;27;20039;-71
2022/11/27 03:28:09;;;;;;;23.88;7.63;;;;;;;;;;5133471;27;20043;-71
2022/11/27 03:30:35;;;;;;;21.25;7.68;;;;;;;;;;5133584;27;20103;-71
2022/11/27 03:33:02;;;;;;;21.45;7.70;;;;;;;;;;5128851;27;20084;-71
2022/11/27 03:35:30;;;;;;;19.55;7.40;;;;;;;;;;5124893;27;20107;-71
2022/11/27 03:37:56;;;;;;;20.02;7.70;;;;;;;;;;5127726;27;20552;-71
2022/11/27 03:40:26;;;;;;;22.13;7.15;;;;;;;;;;5132772;27;20092;-71
2022/11/27 03:43:01;;;;;;;24.20;7.82;;;;;;;;;;5133335;27;20039;-71
2022/11/27 03:45:36;;;;;;;20.52;7.10;;;;;;;;;;5133027;27;20100;-71
2022/11/27 03:48:05;;;;;;;23.75;7.00;;;;;;;;;;5133376;27;20050;-71
2022/11/27 03:50:43;;;;;;;25.80;7.03;;;;;;;;;;5130589;27;20031;-71
2022/11/27 03:53:19;;;;;;;14.90;6.40;;;;;;;;;;5132482;27;20050;-71
2022/11/27 03:56:03;;;;;;;19.17;7.32;;;;;;;;;;5127436;27;20040;-71
2022/11/27 03:58:33;;;;;;;21.38;7.18;;;;;;;;;;5132843;27;20060;-71
2022/11/27 04:01:00;;;;;;;18.25;7.28;;;;;;;;;;5132577;27;20055;-71
2022/11/27 04:03:28;;;;;;;21.15;7.20;;;;;;;;;;5131847;27;20051;-71
2022/11/27 04:05:54;;;;;;;18.98;6.85;;;;;;;;;;5116294;28;20100;-71
2022/11/27 04:08:21;;;;;;;20.88;7.32;;;;;;;;;;5130982;27;20050;-71
2022/11/27 04:10:47;;;;;;;18.73;7.18;;;;;;;;;;5124528;27;20038;-71
2022/11/27 04:13:13;;;;;;;18.95;6.60;;;;;;;;;;5132272;27;20043;-71
2022/11/27 04:15:39;;;;;;;20.88;6.75;;;;;;;;;;5133463;28;20118;-71
2022/11/27 04:18:05;;;;;;;18.15;7.22;;;;;;;;;;5133123;28;20054;-72
2022/11/27 04:20:31;;;;;;;16.98;6.15;;;;;;;;;;5132564;28;20035;-71
2022/11/27 04:22:57;;;;;;;25.77;6.90;;;;;;;;;;5132840;28;20100;-71
2022/11/27 04:25:23;;;;;;;19.48;7.18;;;;;;;;;;5131756;28;20054;-71
2022/11/27 04:27:49;;;;;;;16.88;7.00;;;;;;;;;;5132179;28;20126;-71
2022/11/27 04:30:16;;;;;;;19.52;6.38;;;;;;;;;;5113806;28;20035;-71
2022/11/27 04:32:42;;;;;;;22.40;6.72;;;;;;;;;;5131866;27;20409;-71
2022/11/27 04:35:09;;;;;;;17.38;7.15;;;;;;;;;;5128842;27;20489;-71
2022/11/27 04:37:35;;;;;;;23.92;6.88;;;;;;;;;;5136644;27;20118;-71
2022/11/27 04:40:01;;;;;;;14.52;6.80;;;;;;;;;;5135641;27;20510;-71
2022/11/27 04:42:27;;;;;;;17.73;7.00;;;;;;;;;;5134966;27;20043;-71
2022/11/27 04:44:53;;;;;;;17.02;6.43;;;;;;;;;;5134605;27;20401;-71
2022/11/27 04:47:19;;;;;;;20.58;7.40;;;;;;;;;;5134903;27;20509;-70
2022/11/27 04:49:45;;;;;;;19.80;6.75;;;;;;;;;;5130899;27;20493;-70
2022/11/27 04:52:11;;;;;;;18.92;7.15;;;;;;;;;;5130616;27;20054;-71
2022/11/27 04:54:37;;;;;;;15.70;7.03;;;;;;;;;;5132821;27;20043;-71
2022/11/27 04:57:03;;;;;;;20.40;7.00;;;;;;;;;;5135615;27;20447;-71
2022/11/27 04:59:29;;;;;;;19.52;7.40;;;;;;;;;;5135999;27;20035;-72
2022/11/27 05:01:55;;;;;;;16.13;7.10;;;;;;;;;;5135434;27;20100;-71
2022/11/27 05:04:21;;;;;;;20.02;6.85;;;;;;;;;;5133620;27;20043;-71
2022/11/27 05:06:48;;;;;;;16.80;6.80;;;;;;;;;;5136164;27;20404;-71
2022/11/27 05:09:14;;;;;;;19.70;7.18;;;;;;;;;;5134204;27;20047;-71
2022/11/27 05:11:40;;;;;;;21.02;6.80;;;;;;;;;;5135789;27;20043;-71
2022/11/27 05:14:19;;;;;;;17.50;6.55;;;;;;;;;;5125044;27;20050;-71
2022/11/27 05:16:50;;;;;;;16.35;6.38;;;;;;;;;;5135542;27;20046;-71
2022/11/27 05:19:16;;;;;;;19.10;6.85;;;;;;;;;;5135942;27;20047;-71
2022/11/27 05:21:43;;;;;;;20.80;6.80;;;;;;;;;;5131365;27;20092;-71
2022/11/27 05:24:10;;;;;;;19.60;6.82;;;;;;;;;;5133492;27;20447;-71
2022/11/27 05:26:37;;;;;;;17.17;6.72;;;;;;;;;;5134211;27;20046;-71
2022/11/27 05:29:03;;;;;;;18.90;6.35;;;;;;;;;;5136034;27;20449;-71
2022/11/27 05:31:30;;;;;;;17.52;6.90;;;;;;;;;;5132277;27;20047;-71
2022/11/27 05:33:56;;;;;;;17.25;6.72;;;;;;;;;;5124899;27;20035;-71
2022/11/27 05:36:22;;;;;;;14.45;6.03;;;;;;;;;;5127005;27;20039;-71
2022/11/27 05:38:48;;;;;;;18.30;7.00;;;;;;;;;;5135557;27;20050;-71
2022/11/27 05:41:14;;;;;;;12.30;6.18;;;;;;;;;;5134732;27;20039;-71
2022/11/27 05:43:40;;;;;;;16.38;6.85;;;;;;;;;;5133218;27;20035;-71
2022/11/27 05:46:07;;;;;;;18.73;6.82;;;;;;;;;;5132073;27;20100;-71
2022/11/27 05:48:34;;;;;;;17.67;6.80;;;;;;;;;;5129170;27;20046;-71
2022/11/27 05:51:00;;;;;;;17.48;6.60;;;;;;;;;;5134783;27;20051;-71
2022/11/27 05:53:26;;;;;;;17.75;7.28;;;;;;;;;;5132294;27;20042;-71
2022/11/27 05:55:52;;;;;;;18.17;6.82;;;;;;;;;;5133311;27;20452;-71
2022/11/27 05:58:18;;;;;;;20.58;7.25;;;;;;;;;;5133951;27;20067;-71
2022/11/27 06:00:45;;;;;;;16.98;6.43;;;;;;;;;;5132037;27;20050;-71
2022/11/27 06:03:11;;;;;;;18.17;6.70;;;;;;;;;;5133783;27;20605;-71
2022/11/27 06:05:40;;;;;;;17.27;6.72;;;;;;;;;;5111575;27;20039;-71
2022/11/27 06:08:06;;;;;;;15.75;6.82;;;;;;;;;;5131556;27;20039;-71
2022/11/27 06:10:32;;;;;;;15.27;6.07;;;;;;;;;;5125446;27;20062;-71
2022/11/27 06:12:59;;;;;;;15.45;6.75;;;;;;;;;;5122586;27;20047;-71
2022/11/27 06:15:25;;;;;;;19.83;6.97;;;;;;;;;;5134630;27;21836;-71
2022/11/27 06:17:51;;;;;;;17.88;6.57;;;;;;;;;;5117477;27;20379;-71
2022/11/27 06:20:19;;;;;;;21.13;7.50;;;;;;;;;;5117872;27;20051;-71
2022/11/27 06:22:45;;;;;;;17.33;7.13;;;;;;;;;;5129426;27;20432;-70
2022/11/27 06:25:11;;;;;;;16.35;7.18;;;;;;;;;;5134404;27;20069;-71
2022/11/27 06:27:37;;;;;;;14.93;6.57;;;;;;;;;;5134824;27;20501;-71
2022/11/27 06:30:03;;;;;;;16.52;6.32;;;;;;;;;;5134781;27;20118;-71
2022/11/27 06:32:29;;;;;;;16.13;6.85;;;;;;;;;;5131488;27;20397;-71
2022/11/27 06:34:55;;;;;;;17.30;6.35;;;;;;;;;;5114401;27;20043;-71
2022/11/27 06:37:22;;;;;;;17.45;6.78;;;;;;;;;;5127023;27;20039;-70
2022/11/27 06:39:48;;;;;;;15.95;6.80;;;;;;;;;;5122916;27;20078;-71
2022/11/27 06:42:14;;;;;;;16.55;6.55;;;;;;;;;;5132542;27;20450;-71
2022/11/27 06:44:40;;;;;;;20.42;7.22;;;;;;;;;;5122357;27;20398;-71
2022/11/27 06:47:06;;;;;;;13.48;6.28;;;;;;;;;;5126996;27;20398;-71
2022/11/27 06:49:33;;;;;;;16.02;6.28;;;;;;;;;;5132215;27;20039;-70
2022/11/27 06:51:59;;;;;;;15.15;6.43;;;;;;;;;;5113820;27;20058;-70
2022/11/27 06:54:25;;;;;;;18.00;7.32;;;;;;;;;;5132805;27;20528;-70
2022/11/27 06:56:51;;;;;;;16.00;6.68;;;;;;;;;;5132638;27;20035;-71
2022/11/27 06:59:18;;;;;;;13.50;6.50;;;;;;;;;;5133724;27;20039;-71
2022/11/27 07:01:44;;;;;;;14.48;6.80;;;;;;;;;;5133298;27;20055;-71
2022/11/27 07:04:11;;;;;;;14.85;6.47;;;;;;;;;;5127554;27;20084;-71
2022/11/27 07:06:37;;;;;;;17.60;7.10;;;;;;;;;;5123427;27;20039;-71
2022/11/27 07:09:04;;;;;;;14.73;6.75;;;;;;;;;;5131505;27;20047;-71
2022/11/27 07:11:30;;;;;;;17.27;6.70;;;;;;;;;;5130315;27;20520;-71
2022/11/27 07:13:58;;;;;;;11.52;6.22;;;;;;;;;;5131869;27;20047;-71
2022/11/27 07:16:25;;;;;;;15.10;6.57;;;;;;;;;;5130034;27;20509;-71
2022/11/27 07:18:52;;;;;;;17.00;7.15;;;;;;;;;;5131932;27;20038;-71
2022/11/27 07:21:18;;;;;;;15.80;6.43;;;;;;;;;;5133301;27;20043;-71
2022/11/27 07:23:45;;;;;;;19.13;6.57;;;;;;;;;;5112742;27;20047;-71
2022/11/27 07:26:15;;;;;;;16.92;7.20;;;;;;;;;;5132174;27;20039;-71
2022/11/27 07:28:44;;;;;;;14.20;6.33;;;;;;;;;;5132332;27;20050;-71
2022/11/27 07:31:11;;;;;;;13.57;6.78;;;;;;;;;;5101190;28;20312;-71
2022/11/27 07:33:37;;;;;;;15.90;6.55;;;;;;;;;;5126243;27;20116;-71
2022/11/27 07:36:05;;;;;;;14.57;6.68;;;;;;;;;;5114706;27;20071;-71
2022/11/27 07:38:31;;;;;;;14.30;6.60;;;;;;;;;;5129061;27;20147;-71
2022/11/27 07:41:00;;;;;;;13.02;6.13;;;;;;;;;;5126030;27;20558;-71
2022/11/27 07:43:27;;;;;;;15.65;6.88;;;;;;;;;;5131189;27;20493;-71
2022/11/27 07:45:53;;;;;;;13.57;6.50;;;;;;;;;;5122830;27;20062;-71
2022/11/27 07:48:19;;;;;;;19.75;7.10;;;;;;;;;;5124095;27;20046;-71
2022/11/27 07:50:45;;;;;;;15.93;6.43;;;;;;;;;;5118403;27;20047;-71
2022/11/27 07:53:11;;;;;;;15.80;6.55;;;;;;;;;;5125483;27;20054;-71
2022/11/27 07:55:38;;;;;;;15.55;7.22;;;;;;;;;;5130032;27;20035;-71
2022/11/27 07:58:04;;;;;;;15.43;6.47;;;;;;;;;;5132258;27;20100;-71
2022/11/27 08:00:30;;;;;;;12.55;6.25;;;;;;;;;;5123258;27;20070;-71
2022/11/27 08:02:58;;;;;;;14.25;6.97;;;;;;;;;;5127855;27;20108;-71
2022/11/27 08:05:24;;;;;;;12.45;7.05;;;;;;;;;;5127639;27;20092;-71
2022/11/27 08:07:50;;;;;;;15.00;6.95;;;;;;;;;;5127760;27;20035;-71
2022/11/27 08:10:16;;;;;;;15.35;6.85;;;;;;;;;;5132436;27;20039;-71
2022/11/27 08:12:42;;;;;;;16.48;7.43;;;;;;;;;;5116542;28;20055;-71
2022/11/27 08:15:09;;;;;;;20.60;6.95;;;;;;;;;;5118822;27;20054;-71
2022/11/27 08:17:35;;;;;;;15.63;7.28;;;;;;;;;;5110986;28;20047;-71
2022/11/27 08:20:01;;;;;;;11.43;6.28;;;;;;;;;;5133143;28;20047;-71
2022/11/27 08:22:27;;;;;;;14.38;7.57;;;;;;;;;;5123478;28;20413;-71
2022/11/27 08:24:53;;;;;;;14.32;6.95;;;;;;;;;;5130745;28;20039;-71
2022/11/27 08:27:19;;;;;;;13.70;7.30;;;;;;;;;;5126065;28;20054;-71
2022/11/27 08:29:46;;;;;;;16.70;7.38;;;;;;;;;;5121545;28;20047;-71
2022/11/27 08:32:12;;;;;;;15.13;6.95;;;;;;;;;;5116464;28;20131;-71
2022/11/27 08:34:38;;;;;;;16.20;6.72;;;;;;;;;;5131022;28;20509;-71
2022/11/27 08:37:05;;;;;;;16.88;7.03;;;;;;;;;;5119453;28;20402;-71
2022/11/27 08:39:31;;;;;;;14.63;6.68;;;;;;;;;;5112118;28;20465;-71
2022/11/27 08:41:57;;;;;;;17.50;6.72;;;;;;;;;;5108449;28;20066;-72
2022/11/27 08:44:23;;;;;;;14.45;7.35;;;;;;;;;;5127896;28;20084;-71
2022/11/27 08:46:49;;;;;;;15.50;7.25;;;;;;;;;;5106829;28;20035;-71
2022/11/27 08:49:15;;;;;;;15.73;7.03;;;;;;;;;;5123846;28;20051;-72
2022/11/27 08:51:41;;;;;;;15.63;7.28;;;;;;;;;;5125236;28;20046;-72
2022/11/27 08:54:08;;;;;;;16.38;6.82;;;;;;;;;;5124851;28;20450;-71
2022/11/27 08:56:35;;;;;;;15.27;7.35;;;;;;;;;;5113985;28;20375;-71
2022/11/27 08:59:01;;;;;;;14.15;7.13;;;;;;;;;;5112350;28;20104;-72
2022/11/27 09:01:28;;;;;;;15.10;6.65;;;;;;;;;;5113248;28;20071;-71
2022/11/27 09:03:54;;;;;;;14.95;6.45;;;;;;;;;;5132624;28;20142;-71
2022/11/27 09:06:22;;;;;;;12.50;7.22;;;;;;;;;;5132045;28;20557;-71
2022/11/27 09:08:48;;;;;;;15.52;6.97;;;;;;;;;;5123837;28;20043;-71
2022/11/27 09:11:15;;;;;;;13.52;6.78;;;;;;;;;;5119947;28;20044;-71
2022/11/27 09:13:42;;;;;;;16.05;7.10;;;;;;;;;;5104823;28;20503;-71
2022/11/27 09:16:09;;;;;;;16.17;7.10;;;;;;;;;;5122377;28;20032;-71
2022/11/27 09:18:36;;;;;;;16.27;7.18;;;;;;;;;;5129954;28;20043;-71
2022/11/27 09:21:04;;;;;;;14.05;6.75;;;;;;;;;;5114022;27;20050;-71
2022/11/27 09:23:30;;;;;;;15.85;7.22;;;;;;;;;;5135286;27;20035;-72
2022/11/27 09:25:59;;;;;;;14.20;7.30;;;;;;;;;;5133285;27;20413;-73
2022/11/27 09:28:25;;;;;;;13.93;7.43;;;;;;;;;;5134311;27;20118;-71
2022/11/27 09:30:55;;;;;;;17.75;7.25;;;;;;;;;;5132245;27;20501;-71
2022/11/27 09:33:22;;;;;;;12.60;7.15;;;;;;;;;;5128343;27;20460;-71
2022/11/27 09:35:48;;;;;;;14.60;7.20;;;;;;;;;;5130171;27;20104;-71
2022/11/27 09:38:14;;;;;;;16.92;7.25;;;;;;;;;;5117954;27;20508;-71
2022/11/27 09:40:47;;;;;;;15.30;7.72;;;;;;;;;;5131055;27;20521;-71
2022/11/27 09:43:13;;;;;;;13.98;6.85;;;;;;;;;;5112139;27;20047;-71
2022/11/27 09:45:43;;;;;;;15.18;7.57;;;;;;;;;;5127222;27;20054;-71
2022/11/27 09:48:12;;;;;;;14.75;7.45;;;;;;;;;;5119016;27;20058;-71
2022/11/27 09:50:49;;;;;;;14.80;7.50;;;;;;;;;;5134823;27;20043;-71
2022/11/27 09:53:30;;;;;;;16.40;7.35;;;;;;;;;;5120972;27;20051;-72
2022/11/27 09:55:58;;;;;;;14.65;7.78;;;;;;;;;;5124366;27;20123;-71
2022/11/27 09:58:27;;;;;;;16.17;8.40;;;;;;;;;;5123428;27;20497;-71
2022/11/27 10:00:53;;;;;;;15.30;7.68;;;;;;;;;;5121343;27;20058;-71
2022/11/27 10:03:28;;;;;;;16.77;7.50;;;;;;;;;;5124327;27;20165;-71
2022/11/27 10:05:57;;;;;;;17.92;8.55;;;;;;;;;;5124963;27;20157;-71
2022/11/27 10:08:28;;;;;;;14.18;7.85;;;;;;;;;;5124048;27;20092;-71
2022/11/27 10:10:57;;;;;;;17.05;8.48;;;;;;;;;;5104856;27;20458;-71
2022/11/27 10:13:23;;;;;;;18.52;8.23;;;;;;;;;;5123681;27;20047;-71
2022/11/27 10:15:52;;;;;;;18.15;8.48;;;;;;;;;;5121798;27;20040;-71
2022/11/27 10:18:39;;;;;;;14.50;7.55;;;;;;;;;;5125028;27;20039;-72
2022/11/27 10:21:24;;;;;;;17.67;8.73;;;;;;;;;;5120940;27;20066;-71
2022/11/27 10:24:01;;;;;;;16.65;7.90;;;;;;;;;;5127005;27;20501;-72
2022/11/27 10:26:31;;;;;;;15.50;8.13;;;;;;;;;;5114524;28;20102;-71
2022/11/27 10:29:00;;;;;;;18.52;8.55;;;;;;;;;;5121861;27;20043;-72
2022/11/27 10:31:32;;;;;;;14.10;8.18;;;;;;;;;;5133338;27;20043;-71
2022/11/27 10:34:17;;;;;;;17.65;7.85;;;;;;;;;;5129108;27;20096;-71
2022/11/27 10:36:45;;;;;;;17.23;7.97;;;;;;;;;;5124029;27;20050;-71
2022/11/27 10:39:41;;;;;;;17.08;8.68;;;;;;;;;;5125493;27;20042;-71
2022/11/27 10:42:10;;;;;;;19.30;8.15;;;;;;;;;;5115408;27;20559;-72
2022/11/27 10:44:50;;;;;;;16.70;8.48;;;;;;;;;;5115679;27;20054;-72
2022/11/27 10:47:18;;;;;;;15.63;8.70;;;;;;;;;;5127243;27;20039;-72
2022/11/27 10:49:49;;;;;;;19.05;8.38;;;;;;;;;;5131188;27;20439;-72
2022/11/27 10:52:17;;;;;;;17.20;8.77;;;;;;;;;;5114474;27;20043;-72
2022/11/27 10:54:45;;;;;;;16.83;9.00;;;;;;;;;;5133669;27;20131;-72
2022/11/27 10:57:23;;;;;;;15.50;8.85;;;;;;;;;;5115662;27;20121;-72
2022/11/27 10:59:58;;;;;;;14.07;8.20;;;;;;;;;;5121905;27;20080;-73
2022/11/27 11:02:26;;;;;;;16.48;8.57;;;;;;;;;;5130848;27;20513;-72
2022/11/27 11:04:52;;;;;;;15.38;8.13;;;;;;;;;;5118140;27;20047;-71
2022/11/27 11:07:25;;;;;;;16.55;9.02;;;;;;;;;;5122097;27;20115;-72
2022/11/27 11:09:52;;;;;;;17.02;9.10;;;;;;;;;;5131907;27;20499;-72
2022/11/27 11:12:20;;;;;;;17.08;8.70;;;;;;;;;;5129987;27;20047;-72
2022/11/27 11:14:53;;;;;;;21.70;9.45;;;;;;;;;;5132465;27;20070;-72
2022/11/27 11:17:26;;;;;;;16.65;9.05;;;;;;;;;;5132956;27;20062;-72
2022/11/27 11:19:52;;;;;;;18.80;8.95;;;;;;;;;;5129940;27;20059;-71
2022/11/27 11:22:19;;;;;;;15.65;8.93;;;;;;;;;;5117766;27;20109;-71
2022/11/27 11:24:52;;;;;;;17.30;8.82;;;;;;;;;;5114672;27;20401;-71
2022/11/27 11:27:24;;;;;;;17.02;8.77;;;;;;;;;;5127325;27;20053;-71
2022/11/27 11:29:51;;;;;;;17.90;8.77;;;;;;;;;;5119998;27;20035;-72
2022/11/27 11:32:19;;;;;;;15.90;9.68;;;;;;;;;;5118340;27;20485;-72
2022/11/27 11:34:47;;;;;;;16.33;9.27;;;;;;;;;;5125925;27;20039;-72
2022/11/27 11:37:33;;;;;;;16.55;8.77;;;;;;;;;;5129637;27;20051;-73
2022/11/27 11:40:07;;;;;;;21.08;9.85;;;;;;;;;;5132788;27;20047;-72
2022/11/27 11:42:35;;;;;;;14.63;8.43;;;;;;;;;;5125844;27;20040;-71
2022/11/27 11:45:03;;;;;;;16.48;8.85;;;;;;;;;;5118161;27;20114;-72
2022/11/27 11:47:29;;;;;;;16.73;8.85;;;;;;;;;;5125913;27;20110;-72
2022/11/27 11:49:56;;;;;;;17.08;9.18;;;;;;;;;;5132200;27;20043;-72
2022/11/27 11:52:28;;;;;;;15.77;8.65;;;;;;;;;;5127560;27;20039;-72
2022/11/27 11:55:00;;;;;;;19.02;8.60;;;;;;;;;;5123950;27;20054;-71
2022/11/27 11:57:26;;;;;;;15.82;8.73;;;;;;;;;;5119917;27;20066;-70
2022/11/27 11:59:55;;;;;;;16.33;9.13;;;;;;;;;;5121705;27;20477;-72
2022/11/27 12:02:28;;;;;;;16.77;8.73;;;;;;;;;;5122683;27;20134;-72
2022/11/27 12:04:56;;;;;;;16.50;9.05;;;;;;;;;;5127255;27;20424;-71
2022/11/27 12:07:25;;;;;;;19.63;9.18;;;;;;;;;;5122310;27;20162;-71
2022/11/27 12:09:59;;;;;;;15.55;9.20;;;;;;;;;;5119428;27;20062;-71
2022/11/27 12:12:45;;;;;;;17.83;9.75;;;;;;;;;;5120898;27;20043;-71
2022/11/27 12:15:18;;;;;;;13.90;8.95;;;;;;;;;;5117606;27;20031;-72
2022/11/27 12:17:55;;;;;;;20.63;9.43;;;;;;;;;;5114239;28;21841;-71
2022/11/27 12:20:22;;;;;;;19.05;9.95;;;;;;;;;;5114419;28;20069;-71
2022/11/27 12:23:04;;;;;;;16.83;8.95;;;;;;;;;;5120307;28;20055;-72
2022/11/27 12:25:36;;;;;;;19.25;9.27;;;;;;;;;;5119096;28;20051;-71
2022/11/27 12:28:08;;;;;;;16.27;9.80;;;;;;;;;;5121710;28;20146;-72
2022/11/27 12:30:55;;;;;;;17.50;9.57;;;;;;;;;;5126567;28;20046;-72
2022/11/27 12:33:30;;;;;;;18.00;9.05;;;;;;;;;;5130829;28;20508;-71
2022/11/27 12:36:02;;;;;;;19.33;8.80;;;;;;;;;;5126469;28;20054;-72
2022/11/27 12:38:44;;;;;;;15.10;9.10;;;;;;;;;;5131645;28;20081;-72
2022/11/27 12:41:28;;;;;;;15.68;9.02;;;;;;;;;;5130337;28;20047;-71
2022/11/27 12:43:59;;;;;;;15.68;8.45;;;;;;;;;;5118415;28;20563;-71
2022/11/27 12:46:45;;;;;;;16.58;9.32;;;;;;;;;;5122822;28;20384;-71
2022/11/27 12:49:18;;;;;;;15.75;8.18;;;;;;;;;;5123684;28;20043;-72
2022/11/27 12:51:48;;;;;;;16.50;8.82;;;;;;;;;;5128765;28;20043;-71
2022/11/27 12:54:14;;;;;;;16.67;9.23;;;;;;;;;;5127379;27;20047;-71
2022/11/27 12:56:43;;;;;;;18.23;9.43;;;;;;;;;;5130403;27;20042;-71
2022/11/27 12:59:16;;;;;;;17.60;9.10;;;;;;;;;;5125075;27;20160;-71
2022/11/27 13:01:47;;;;;;;18.90;9.35;;;;;;;;;;5135095;27;20493;-71
2022/11/27 13:04:18;;;;;;;14.68;9.07;;;;;;;;;;5129594;27;20051;-72
2022/11/27 13:06:52;;;;;;;15.50;8.82;;;;;;;;;;5115343;27;20050;-72
2022/11/27 13:09:24;;;;;;;17.58;9.88;;;;;;;;;;5125210;27;20039;-71
2022/11/27 13:11:50;;;;;;;17.30;9.52;;;;;;;;;;5134985;27;20046;-71
2022/11/27 13:14:19;;;;;;;16.58;9.38;;;;;;;;;;5136500;27;20044;-71
2022/11/27 13:16:51;;;;;;;16.92;9.30;;;;;;;;;;5136478;27;20047;-71
2022/11/27 13:19:34;;;;;;;17.10;9.13;;;;;;;;;;5135418;27;20035;-71
2022/11/27 13:22:03;;;;;;;16.40;9.48;;;;;;;;;;5136171;27;20035;-71
2022/11/27 13:24:29;;;;;;;15.20;9.15;;;;;;;;;;5136442;27;20418;-71
2022/11/27 13:27:14;;;;;;;16.48;9.52;;;;;;;;;;5135471;27;20509;-71
2022/11/27 13:29:49;;;;;;;17.50;9.50;;;;;;;;;;5135752;27;20050;-71
2022/11/27 13:32:22;;;;;;;18.08;9.85;;;;;;;;;;5136003;27;20047;-71
2022/11/27 13:34:50;;;;;;;18.95;9.55;;;;;;;;;;5135862;27;20489;-71
2022/11/27 13:37:25;;;;;;;16.98;9.38;;;;;;;;;;5135772;27;20047;-71
2022/11/27 13:39:58;;;;;;;16.00;9.05;;;;;;;;;;5136119;27;20054;-71
2022/11/27 13:42:27;;;;;;;17.80;9.20;;;;;;;;;;5134984;27;20151;-71
2022/11/27 13:44:55;;;;;;;15.45;9.30;;;;;;;;;;5135430;27;20469;-71
2022/11/27 13:47:23;;;;;;;17.25;9.02;;;;;;;;;;5135783;27;20039;-71
2022/11/27 13:50:00;;;;;;;15.27;9.77;;;;;;;;;;5135730;27;20043;-71
2022/11/27 13:52:28;;;;;;;18.42;10.80;;;;;;;;;;5135865;27;20042;-72
2022/11/27 13:54:58;;;;;;;19.60;10.60;;;;;;;;;;5135478;27;20051;-71
2022/11/27 13:57:25;;;;;;;17.17;9.93;;;;;;;;;;5134389;27;20047;-71
2022/11/27 14:00:11;;;;;;;17.15;10.30;;;;;;;;;;5115253;28;20545;-71
2022/11/27 14:02:48;;;;;;;16.80;10.07;;;;;;;;;;5114708;28;20051;-71
2022/11/27 14:05:18;;;;;;;18.10;10.35;;;;;;;;;;5114919;28;20052;-71
2022/11/27 14:07:46;;;;;;;18.85;9.77;;;;;;;;;;5096193;28;20040;-72
2022/11/27 14:10:16;;;;;;;17.00;10.30;;;;;;;;;;5121075;27;20486;-71
2022/11/27 14:12:51;;;;;;;17.95;10.05;;;;;;;;;;5135208;27;20054;-71
2022/11/27 14:15:17;;;;;;;18.30;9.90;;;;;;;;;;5135245;27;20129;-72
2022/11/27 14:17:44;;;;;;;17.40;10.38;;;;;;;;;;5135346;27;20050;-71
2022/11/27 14:20:16;;;;;;;19.13;10.27;;;;;;;;;;5134422;27;20054;-72
2022/11/27 14:22:42;;;;;;;14.82;10.07;;;;;;;;;;5134878;27;20474;-71
2022/11/27 14:25:16;;;;;;;18.25;10.30;;;;;;;;;;5134609;27;20053;-71
2022/11/27 14:27:42;;;;;;;15.73;9.95;;;;;;;;;;5134889;27;20043;-71
2022/11/27 14:30:32;;;;;;;14.73;10.13;;;;;;;;;;5135100;27;20042;-71
2022/11/27 14:32:58;;;;;;;16.55;9.77;;;;;;;;;;5126791;27;20047;-71
2022/11/27 14:35:26;;;;;;;16.08;9.65;;;;;;;;;;5135053;27;20059;-71
2022/11/27 14:37:52;;;;;;;21.92;10.73;;;;;;;;;;5132964;27;20046;-71
2022/11/27 14:40:27;;;;;;;17.67;10.07;;;;;;;;;;5134829;27;20186;-72